Terminal Aerodrome Forecast
Issued by NWS Upton, NY

Home | Current Version | Previous Version | Text Only | Print | Product List | Glossary On
Versions: 1 2 3 4 5 6 7 8 9 10 11 12 13 14 15 16 17 18 19 20 21 22 23 24 25 26 27
000
FTUS41 KOKX 252300 RRA
TAFBDR
TAF
KBDR 252357Z 2600/2624 33007KT P6SM SCT120 BKN250
     FM260600 03007KT P6SM BKN050
     FM261300 05014KT P6SM BKN030
      TEMPO 2613/2616 3SM -SN BR BKN015
     FM261600 05015G23KT 1SM -SN BR BKN007
     FM261900 04019G29KT 3/4SM -SN BR BKN007
     FM262300 02019G29KT 1/2SM SN FZFG VV005=

USA.gov is the U.S. government's official web portal to all federal, state and local government web resources and services.